createdAt,value
2019-05-06T00:00:53.447Z,2.36
2019-05-06T00:01:41.096Z,2.37
2019-05-06T00:02:43.467Z,2.29
2019-05-06T00:03:40.995Z,2.30
2019-05-06T00:04:41.097Z,2.27
2019-05-06T00:05:41.124Z,2.26
2019-05-06T00:06:41.155Z,2.19
2019-05-06T00:07:41.112Z,2.15
2019-05-06T00:08:48.867Z,2.21
2019-05-06T00:09:44.179Z,2.19
2019-05-06T00:10:41.237Z,2.14
2019-05-06T00:11:41.158Z,2.16
2019-05-06T00:12:41.194Z,2.17
2019-05-06T00:13:41.258Z,2.27
2019-05-06T00:14:43.173Z,2.26
2019-05-06T00:15:41.066Z,2.21
2019-05-06T00:16:41.285Z,2.19
2019-05-06T00:17:41.185Z,2.17
2019-05-06T00:18:41.096Z,2.12
2019-05-06T00:19:41.334Z,2.10
2019-05-06T00:20:41.170Z,2.10
2019-05-06T00:21:41.209Z,2.07
2019-05-06T00:22:43.494Z,2.11
2019-05-06T00:23:41.254Z,2.30
2019-05-06T00:24:41.295Z,2.39
2019-05-06T00:25:41.265Z,2.42
2019-05-06T00:26:41.156Z,2.41
2019-05-06T00:27:41.297Z,2.28
2019-05-06T00:28:41.180Z,2.35
2019-05-06T00:29:41.254Z,2.26
2019-05-06T00:30:41.301Z,2.21
2019-05-06T00:31:41.184Z,2.18
2019-05-06T00:32:41.256Z,2.11
2019-05-06T00:33:41.251Z,2.07
2019-05-06T00:34:43.592Z,2.04
2019-05-06T00:35:41.253Z,2.05
2019-05-06T00:36:41.202Z,2.02
2019-05-06T00:37:41.135Z,2.14
2019-05-06T00:38:41.208Z,2.25
2019-05-06T00:39:41.258Z,2.29
2019-05-06T00:40:43.596Z,2.24
2019-05-06T00:41:43.378Z,2.31
2019-05-06T00:42:41.127Z,2.37
2019-05-06T00:43:41.180Z,2.29
2019-05-06T00:44:41.469Z,2.28
2019-05-06T00:45:41.207Z,2.15
2019-05-06T00:46:41.128Z,2.07
2019-05-06T00:47:41.230Z,2.05
2019-05-06T00:48:41.146Z,2.01
2019-05-06T00:49:41.185Z,2.07
2019-05-06T00:50:41.116Z,2.10
2019-05-06T00:51:41.158Z,2.03
2019-05-06T00:52:41.315Z,2.02
2019-05-06T00:53:41.088Z,2.05
2019-05-06T00:54:43.519Z,2.18
2019-05-06T00:55:41.181Z,2.20
2019-05-06T00:56:41.175Z,2.15
2019-05-06T00:57:43.291Z,2.08
2019-05-06T00:58:41.304Z,2.05
2019-05-06T00:59:41.242Z,2.10
2019-05-06T01:00:41.346Z,2.12
2019-05-06T01:01:43.385Z,2.13
2019-05-06T01:02:41.243Z,2.09
2019-05-06T01:03:41.325Z,2.21
2019-05-06T01:04:41.203Z,2.22
2019-05-06T01:05:41.245Z,2.21
2019-05-06T01:06:41.141Z,2.17
2019-05-06T01:07:41.162Z,2.15
2019-05-06T01:08:41.283Z,2.04
2019-05-06T01:09:41.200Z,1.99
2019-05-06T01:10:41.183Z,1.98
2019-05-06T01:11:41.338Z,2.01
2019-05-06T01:12:41.174Z,1.92
2019-05-06T01:13:41.179Z,1.95
2019-05-06T01:14:43.494Z,1.95
2019-05-06T01:15:41.332Z,1.99
2019-05-06T01:16:41.262Z,2.04
2019-05-06T01:17:41.295Z,2.07
2019-05-06T01:18:43.437Z,2.10
2019-05-06T01:19:41.199Z,2.11
2019-05-06T01:20:41.205Z,2.25
2019-05-06T01:21:41.298Z,2.27
2019-05-06T01:22:41.179Z,2.27
2019-05-06T01:23:41.328Z,2.17
2019-05-06T01:24:41.124Z,2.10
2019-05-06T01:25:41.401Z,2.14
2019-05-06T01:26:41.121Z,2.10
2019-05-06T01:27:41.269Z,2.08
2019-05-06T01:28:43.470Z,2.12
2019-05-06T01:29:41.515Z,2.24
2019-05-06T01:30:41.152Z,2.12
2019-05-06T01:31:43.222Z,2.07
2019-05-06T01:32:43.437Z,2.13
2019-05-06T01:33:41.159Z,2.11
2019-05-06T01:34:41.210Z,2.12
2019-05-06T01:35:41.274Z,2.07
2019-05-06T01:36:41.266Z,2.06
2019-05-06T01:37:41.245Z,2.00
2019-05-06T01:38:41.184Z,2.08
2019-05-06T01:39:41.222Z,2.11
2019-05-06T01:40:41.241Z,2.35
2019-05-06T01:41:41.364Z,2.40
2019-05-06T01:42:41.230Z,2.21
2019-05-06T01:43:41.299Z,2.09
2019-05-06T01:44:41.261Z,1.97
2019-05-06T01:45:41.298Z,1.90
2019-05-06T01:46:41.262Z,1.85
2019-05-06T01:47:41.355Z,1.85
2019-05-06T01:48:41.284Z,1.83
2019-05-06T01:49:41.294Z,1.86
2019-05-06T01:50:41.225Z,1.88
2019-05-06T01:51:41.371Z,1.86
2019-05-06T01:52:41.202Z,1.82
2019-05-06T01:53:41.211Z,1.89
2019-05-06T01:54:41.131Z,1.90
2019-05-06T01:55:41.338Z,1.92
2019-05-06T01:56:41.226Z,1.96
2019-05-06T01:57:41.255Z,1.88
2019-05-06T01:58:41.417Z,1.79
2019-05-06T01:59:41.452Z,1.77
2019-05-06T02:00:41.208Z,1.82
2019-05-06T02:01:56.430Z,1.80
2019-05-06T02:02:43.704Z,1.78
2019-05-06T02:03:41.190Z,1.82
2019-05-06T02:04:41.241Z,1.81
2019-05-06T02:05:41.212Z,1.85
2019-05-06T02:06:41.236Z,1.96
2019-05-06T02:07:41.258Z,1.95
2019-05-06T02:08:41.112Z,1.90
2019-05-06T02:09:41.376Z,1.81
2019-05-06T02:10:43.440Z,1.86
2019-05-06T02:11:41.245Z,1.84
2019-05-06T02:12:41.246Z,1.79
2019-05-06T02:13:41.401Z,1.75
2019-05-06T02:14:43.494Z,1.73
2019-05-06T02:15:41.267Z,1.78
2019-05-06T02:16:43.513Z,1.75
2019-05-06T02:17:41.402Z,1.82
2019-05-06T02:18:41.161Z,1.83
2019-05-06T02:19:41.255Z,1.85
2019-05-06T02:20:41.432Z,1.91
2019-05-06T02:21:43.708Z,1.89
2019-05-06T02:22:41.259Z,1.89
2019-05-06T02:23:41.195Z,1.83
2019-05-06T02:24:41.151Z,1.83
2019-05-06T02:25:41.353Z,1.83
2019-05-06T02:26:41.195Z,1.82
2019-05-06T02:27:41.369Z,1.79
2019-05-06T02:28:41.253Z,1.87
2019-05-06T02:29:43.333Z,1.83
2019-05-06T02:30:41.258Z,1.80
2019-05-06T02:31:41.415Z,1.80
2019-05-06T02:32:41.284Z,1.93
2019-05-06T02:33:44.607Z,2.01
2019-05-06T02:34:41.406Z,1.98
2019-05-06T02:35:41.537Z,2.06
2019-05-06T02:36:41.174Z,2.15
2019-05-06T02:37:41.215Z,2.20
2019-05-06T02:38:50.454Z,2.13
2019-05-06T02:39:43.829Z,2.07
2019-05-06T02:40:42.690Z,2.04
2019-05-06T02:41:43.030Z,2.00
2019-05-06T02:42:43.176Z,1.95
2019-05-06T02:43:43.505Z,1.86
2019-05-06T02:44:44.189Z,1.81
2019-05-06T02:45:43.340Z,1.95
2019-05-06T02:46:44.162Z,2.05
2019-05-06T02:47:42.979Z,2.09
2019-05-06T02:48:43.271Z,2.04
2019-05-06T02:49:44.330Z,2.06
2019-05-06T02:50:42.706Z,2.09
2019-05-06T02:51:44.080Z,2.15
2019-05-06T02:52:43.749Z,2.13
2019-05-06T02:53:42.874Z,2.15
2019-05-06T02:54:42.687Z,2.04
2019-05-06T02:55:43.046Z,2.03
2019-05-06T02:56:43.559Z,2.11
2019-05-06T02:57:43.958Z,2.17
2019-05-06T02:58:43.735Z,2.11
2019-05-06T02:59:44.250Z,2.21
2019-05-06T03:00:42.948Z,2.22
2019-05-06T03:01:43.236Z,2.31
2019-05-06T03:02:44.877Z,2.23
2019-05-06T03:03:43.640Z,2.16
2019-05-06T03:04:43.758Z,2.12
2019-05-06T03:05:43.879Z,2.14
2019-05-06T03:06:44.426Z,2.14
2019-05-06T03:07:43.515Z,2.05
2019-05-06T03:08:43.405Z,1.97
2019-05-06T03:09:44.315Z,1.94
2019-05-06T03:10:44.346Z,1.93
2019-05-06T03:11:43.749Z,1.95
2019-05-06T03:12:43.097Z,2.04
2019-05-06T03:13:43.687Z,2.09
2019-05-06T03:14:43.707Z,2.09
2019-05-06T03:15:43.305Z,2.06
2019-05-06T03:16:43.918Z,2.05
2019-05-06T03:17:43.528Z,1.96
2019-05-06T03:18:43.343Z,1.94
2019-05-06T03:19:45.737Z,1.92
2019-05-06T03:20:43.916Z,1.90
2019-05-06T03:21:44.518Z,1.94
2019-05-06T03:22:43.548Z,1.88
2019-05-06T03:23:43.730Z,1.82
2019-05-06T03:24:43.613Z,1.76
2019-05-06T03:25:43.977Z,1.84
2019-05-06T03:26:43.877Z,1.98
2019-05-06T03:27:46.482Z,2.12
2019-05-06T03:28:43.614Z,2.09
2019-05-06T03:29:44.188Z,2.01
2019-05-06T03:30:45.795Z,1.90
2019-05-06T03:31:46.076Z,1.83
2019-05-06T03:33:00.184Z,1.93
2019-05-06T03:34:03.393Z,1.94
2019-05-06T03:35:01.084Z,1.89
2019-05-06T03:35:55.961Z,1.81
2019-05-06T03:36:47.689Z,1.81
2019-05-06T03:37:43.762Z,1.82
2019-05-06T03:38:43.239Z,1.91
2019-05-06T03:39:43.384Z,1.92
2019-05-06T03:40:45.068Z,1.85
2019-05-06T03:41:43.794Z,1.86
2019-05-06T03:42:42.687Z,1.83
2019-05-06T03:43:43.439Z,1.95
2019-05-06T03:44:43.583Z,2.10
2019-05-06T03:45:42.863Z,2.14
2019-05-06T03:46:43.008Z,2.12
2019-05-06T03:47:43.498Z,2.15
2019-05-06T03:48:44.061Z,2.09
2019-05-06T03:49:42.657Z,2.04
2019-05-06T03:50:43.948Z,2.07
2019-05-06T03:51:42.930Z,2.09
2019-05-06T03:52:43.007Z,2.07
2019-05-06T03:53:43.307Z,2.01
2019-05-06T03:54:45.004Z,2.11
2019-05-06T03:55:46.503Z,2.10
2019-05-06T03:56:43.303Z,2.04
2019-05-06T03:57:42.860Z,1.97
2019-05-06T03:58:43.477Z,1.94
2019-05-06T03:59:43.561Z,1.92
2019-05-06T04:00:43.723Z,1.89
2019-05-06T04:01:42.945Z,1.86
2019-05-06T04:02:43.434Z,1.85
2019-05-06T04:03:47.754Z,1.91
2019-05-06T04:04:43.998Z,2.03
2019-05-06T04:05:43.753Z,2.07
2019-05-06T04:06:43.630Z,2.09
2019-05-06T04:07:45.535Z,2.04
2019-05-06T04:08:43.646Z,1.99
2019-05-06T04:09:44.112Z,1.99
2019-05-06T04:10:43.520Z,1.96
2019-05-06T04:11:43.204Z,2.01
2019-05-06T04:12:43.485Z,2.00
2019-05-06T04:13:43.752Z,1.96
2019-05-06T04:14:43.321Z,1.93
2019-05-06T04:15:43.084Z,1.93
2019-05-06T04:16:44.036Z,2.07
2019-05-06T04:17:43.851Z,2.10
2019-05-06T04:18:43.766Z,2.05
2019-05-06T04:19:43.712Z,1.98
2019-05-06T04:20:43.583Z,1.99
2019-05-06T04:21:43.712Z,2.11
2019-05-06T04:22:43.781Z,2.13
2019-05-06T04:23:43.690Z,2.10
2019-05-06T04:24:43.045Z,2.10
2019-05-06T04:25:43.530Z,2.21
2019-05-06T04:26:46.052Z,2.41
2019-05-06T04:27:43.012Z,2.48
2019-05-06T04:28:43.531Z,2.41
2019-05-06T04:29:42.787Z,2.26
2019-05-06T04:30:42.856Z,2.13
2019-05-06T04:31:43.507Z,2.21
2019-05-06T04:32:43.489Z,2.23
2019-05-06T04:33:41.445Z,2.31
2019-05-06T04:34:43.074Z,2.26
2019-05-06T04:35:43.033Z,2.15
2019-05-06T04:36:44.088Z,2.20
2019-05-06T04:37:42.965Z,2.28
2019-05-06T04:38:43.393Z,2.33
2019-05-06T04:39:43.410Z,2.30
2019-05-06T04:40:43.980Z,2.23
2019-05-06T04:41:43.407Z,2.22
2019-05-06T04:42:44.434Z,2.15
2019-05-06T04:43:43.873Z,2.23
2019-05-06T04:44:43.858Z,2.24
2019-05-06T04:45:43.287Z,2.25
2019-05-06T04:46:44.402Z,2.24
2019-05-06T04:47:43.387Z,2.35
2019-05-06T04:48:43.407Z,2.35
2019-05-06T04:49:43.683Z,2.44
2019-05-06T04:50:44.417Z,2.41
2019-05-06T04:51:43.078Z,2.41
2019-05-06T04:52:43.181Z,2.42
2019-05-06T04:53:44.030Z,2.50
2019-05-06T04:54:43.942Z,2.55
2019-05-06T04:55:43.671Z,2.48
2019-05-06T04:56:43.853Z,2.50
2019-05-06T04:57:44.052Z,2.51
2019-05-06T04:58:42.901Z,2.54
2019-05-06T04:59:43.237Z,2.48
2019-05-06T05:00:44.134Z,2.50
2019-05-06T05:01:41.452Z,2.55
2019-05-06T05:02:45.936Z,2.40
2019-05-06T05:03:42.766Z,2.36
2019-05-06T05:04:43.233Z,2.31
2019-05-06T05:05:44.436Z,2.35
2019-05-06T05:06:43.235Z,2.40
2019-05-06T05:07:42.528Z,2.31
2019-05-06T05:08:42.750Z,2.17
2019-05-06T05:09:42.991Z,2.11
2019-05-06T05:10:43.159Z,2.12
2019-05-06T05:11:42.529Z,2.26
2019-05-06T05:12:42.664Z,2.30
2019-05-06T05:13:43.314Z,2.37
2019-05-06T05:14:42.295Z,2.45
2019-05-06T05:15:41.821Z,2.28
2019-05-06T05:16:42.141Z,2.29
2019-05-06T05:17:42.109Z,2.32
2019-05-06T05:18:42.481Z,2.34
2019-05-06T05:19:42.833Z,2.39
2019-05-06T05:20:45.667Z,2.26
2019-05-06T05:21:42.859Z,2.36
2019-05-06T05:22:42.383Z,2.38
2019-05-06T05:23:42.830Z,2.43
2019-05-06T05:24:47.026Z,2.37
2019-05-06T05:25:42.557Z,2.45
2019-05-06T05:26:45.077Z,2.59
2019-05-06T05:27:42.089Z,2.54
2019-05-06T05:28:42.982Z,2.54
2019-05-06T05:29:42.412Z,2.50
2019-05-06T05:30:42.967Z,2.53
2019-05-06T05:31:43.534Z,2.56
2019-05-06T05:32:42.826Z,2.50
2019-05-06T05:33:42.314Z,2.45
2019-05-06T05:34:43.454Z,2.35
2019-05-06T05:35:43.257Z,2.26
2019-05-06T05:36:42.607Z,2.20
2019-05-06T05:37:41.929Z,2.24
2019-05-06T05:38:42.844Z,2.29
2019-05-06T05:39:42.597Z,2.37
2019-05-06T05:40:43.109Z,2.41
2019-05-06T05:41:42.864Z,2.42
2019-05-06T05:42:42.375Z,2.46
2019-05-06T05:43:42.367Z,2.49
2019-05-06T05:44:43.051Z,2.29
2019-05-06T05:45:42.465Z,2.20
2019-05-06T05:46:43.691Z,2.42
2019-05-06T05:47:42.516Z,2.41
2019-05-06T05:48:42.375Z,2.46
2019-05-06T05:49:42.056Z,2.54
2019-05-06T05:50:42.056Z,2.58
2019-05-06T05:51:42.603Z,2.58
2019-05-06T05:52:42.554Z,2.55
2019-05-06T05:53:42.606Z,2.56
2019-05-06T05:54:42.343Z,2.68
2019-05-06T05:55:42.372Z,2.54
2019-05-06T05:56:43.812Z,2.44
2019-05-06T05:57:43.249Z,2.44
2019-05-06T05:58:42.451Z,2.39
2019-05-06T05:59:42.173Z,2.38
2019-05-06T06:00:42.571Z,2.41
2019-05-06T06:01:43.449Z,2.48
2019-05-06T06:02:43.702Z,2.35
2019-05-06T06:03:42.214Z,2.49
2019-05-06T06:04:53.883Z,2.34
2019-05-06T06:05:42.766Z,2.26
2019-05-06T06:06:42.344Z,2.35
2019-05-06T06:07:42.251Z,2.42
2019-05-06T06:08:43.097Z,2.37
2019-05-06T06:09:41.845Z,2.46
2019-05-06T06:10:42.618Z,2.43
2019-05-06T06:11:42.142Z,2.48
2019-05-06T06:12:42.927Z,2.53
2019-05-06T06:13:43.337Z,2.52
2019-05-06T06:14:43.758Z,2.82
2019-05-06T06:15:42.333Z,3.04
2019-05-06T06:16:42.282Z,3.16
2019-05-06T06:17:42.604Z,3.16
2019-05-06T06:18:43.088Z,3.18
2019-05-06T06:19:42.471Z,3.21
2019-05-06T06:20:42.410Z,3.28
2019-05-06T06:21:42.788Z,3.40
2019-05-06T06:22:42.506Z,3.49
2019-05-06T06:23:41.997Z,3.56
2019-05-06T06:24:42.867Z,3.57
2019-05-06T06:25:42.357Z,3.59
2019-05-06T06:26:42.938Z,3.54
2019-05-06T06:27:42.039Z,3.59
2019-05-06T06:28:42.530Z,3.64
2019-05-06T06:29:41.829Z,3.65
2019-05-06T06:30:42.375Z,3.41
2019-05-06T06:31:42.771Z,3.51
2019-05-06T06:32:41.948Z,3.69
2019-05-06T06:33:42.846Z,3.67
2019-05-06T06:34:42.713Z,3.56
2019-05-06T06:35:42.643Z,3.52
2019-05-06T06:36:41.922Z,3.56
2019-05-06T06:37:42.654Z,3.62
2019-05-06T06:38:42.906Z,3.71
2019-05-06T06:39:42.330Z,3.51
2019-05-06T06:40:42.545Z,3.61
2019-05-06T06:41:42.366Z,3.66
2019-05-06T06:42:42.754Z,3.48
2019-05-06T06:43:42.101Z,3.55
2019-05-06T06:44:42.401Z,3.52
2019-05-06T06:45:42.198Z,3.52
2019-05-06T06:46:42.930Z,3.58
2019-05-06T06:47:42.523Z,3.63
2019-05-06T06:48:43.003Z,3.63
2019-05-06T06:49:42.405Z,3.66
2019-05-06T06:50:42.627Z,3.79
2019-05-06T06:51:42.511Z,3.78
2019-05-06T06:52:42.170Z,3.67
2019-05-06T06:53:42.125Z,3.76
2019-05-06T06:54:43.793Z,3.79
2019-05-06T06:55:42.703Z,3.73
2019-05-06T06:56:43.858Z,3.86
2019-05-06T06:57:42.389Z,3.81
2019-05-06T06:58:41.786Z,3.87
2019-05-06T06:59:42.659Z,3.77
2019-05-06T07:00:42.481Z,3.89
2019-05-06T07:01:42.320Z,4.02
2019-05-06T07:02:43.247Z,4.00
2019-05-06T07:03:43.158Z,4.05
2019-05-06T07:04:43.087Z,4.17
2019-05-06T07:05:42.319Z,4.33
2019-05-06T07:06:42.298Z,4.41
2019-05-06T07:07:46.622Z,4.55
2019-05-06T07:08:42.630Z,4.70
2019-05-06T07:09:41.982Z,4.85
2019-05-06T07:10:43.030Z,4.66
2019-05-06T07:11:42.823Z,4.76
2019-05-06T07:12:42.695Z,4.89
2019-05-06T07:13:42.005Z,4.94
2019-05-06T07:14:42.795Z,5.04
2019-05-06T07:15:42.634Z,5.06
2019-05-06T07:16:43.060Z,5.08
2019-05-06T07:17:41.925Z,5.13
2019-05-06T07:18:42.734Z,5.18
2019-05-06T07:19:42.257Z,5.07
2019-05-06T07:20:42.937Z,5.09
2019-05-06T07:21:43.514Z,5.23
2019-05-06T07:22:42.413Z,5.52
2019-05-06T07:23:42.066Z,5.62
2019-05-06T07:24:43.089Z,5.84
2019-05-06T07:25:42.915Z,6.02
2019-05-06T07:26:42.534Z,6.01
2019-05-06T07:27:42.010Z,5.74
2019-05-06T07:28:43.720Z,5.76
2019-05-06T07:29:48.331Z,5.88
2019-05-06T07:30:42.030Z,5.71
2019-05-06T07:31:42.652Z,5.28
2019-05-06T07:32:42.349Z,5.50
2019-05-06T07:33:42.854Z,6.10
2019-05-06T07:34:42.070Z,6.10
2019-05-06T07:35:43.890Z,5.87
2019-05-06T07:36:43.105Z,5.83
2019-05-06T07:37:42.264Z,5.68
2019-05-06T07:38:42.736Z,5.53
2019-05-06T07:39:43.064Z,5.51
2019-05-06T07:40:42.008Z,5.40
2019-05-06T07:41:45.754Z,5.71
2019-05-06T07:42:43.074Z,5.87
2019-05-06T07:43:42.141Z,6.12
2019-05-06T07:44:42.332Z,5.97
2019-05-06T07:45:42.358Z,6.17
2019-05-06T07:46:42.715Z,6.28
2019-05-06T07:47:42.634Z,6.02
2019-05-06T07:48:42.863Z,6.01
2019-05-06T07:49:43.238Z,6.35
2019-05-06T07:50:42.531Z,6.02
2019-05-06T07:51:41.987Z,5.44
2019-05-06T07:52:42.157Z,5.51
2019-05-06T07:53:42.701Z,5.59
2019-05-06T07:54:42.403Z,5.66
2019-05-06T07:55:42.442Z,5.66
2019-05-06T07:56:42.852Z,5.84
2019-05-06T07:57:42.388Z,5.70
2019-05-06T07:58:43.351Z,6.06
2019-05-06T07:59:42.958Z,6.39
2019-05-06T08:00:42.263Z,6.79
2019-05-06T08:01:43.818Z,7.00
2019-05-06T08:02:42.598Z,7.16
2019-05-06T08:03:42.753Z,7.53
2019-05-06T08:04:42.053Z,7.71
2019-05-06T08:05:55.182Z,6.97
2019-05-06T08:06:42.729Z,6.24
2019-05-06T08:07:42.279Z,6.40
2019-05-06T08:08:43.381Z,6.48
2019-05-06T08:09:42.241Z,6.54
2019-05-06T08:10:42.331Z,6.26
2019-05-06T08:11:42.299Z,6.21
2019-05-06T08:12:42.860Z,6.25
2019-05-06T08:13:43.505Z,6.38
2019-05-06T08:14:43.077Z,6.65
2019-05-06T08:15:42.085Z,7.14
2019-05-06T08:16:42.477Z,7.08
2019-05-06T08:17:42.406Z,6.92
2019-05-06T08:18:42.595Z,7.35
2019-05-06T08:19:42.282Z,7.34
2019-05-06T08:20:42.749Z,7.53
2019-05-06T08:21:42.797Z,8.13
2019-05-06T08:22:42.241Z,8.64
2019-05-06T08:23:42.846Z,8.61
2019-05-06T08:24:42.261Z,7.81
2019-05-06T08:25:42.485Z,7.32
2019-05-06T08:26:42.863Z,7.36
2019-05-06T08:27:42.525Z,7.40
2019-05-06T08:28:44.390Z,7.36
2019-05-06T08:29:42.457Z,7.04
2019-05-06T08:30:43.172Z,7.27
2019-05-06T08:31:43.039Z,7.47
2019-05-06T08:32:42.459Z,7.45
2019-05-06T08:33:43.199Z,7.44
2019-05-06T08:34:42.216Z,7.24
2019-05-06T08:35:42.578Z,7.21
2019-05-06T08:36:42.605Z,7.16
2019-05-06T08:37:42.640Z,6.78
2019-05-06T08:38:42.180Z,6.72
2019-05-06T08:39:45.827Z,6.77
2019-05-06T08:40:43.089Z,6.94
2019-05-06T08:41:42.316Z,7.06
2019-05-06T08:42:42.589Z,7.31
2019-05-06T08:43:42.223Z,7.38
2019-05-06T08:44:42.698Z,7.11
2019-05-06T08:45:42.144Z,6.80
2019-05-06T08:46:43.173Z,6.91
2019-05-06T08:47:42.625Z,7.03
2019-05-06T08:48:42.834Z,7.22
2019-05-06T08:49:42.259Z,7.30
2019-05-06T08:50:42.570Z,7.45
2019-05-06T08:51:42.673Z,7.65
2019-05-06T08:52:42.496Z,7.80
2019-05-06T08:53:42.435Z,7.86
2019-05-06T08:54:43.343Z,7.97
2019-05-06T08:55:42.100Z,7.97
2019-05-06T08:56:42.703Z,8.18
2019-05-06T08:57:42.075Z,8.34
2019-05-06T08:58:43.138Z,8.52
2019-05-06T08:59:42.368Z,8.63
2019-05-06T09:00:42.883Z,8.70
2019-05-06T09:01:42.448Z,8.83
2019-05-06T09:02:42.190Z,8.86
2019-05-06T09:03:42.319Z,8.45
2019-05-06T09:04:42.738Z,8.18
2019-05-06T09:05:42.344Z,7.86
2019-05-06T09:06:43.167Z,7.84
2019-05-06T09:07:42.978Z,8.10
2019-05-06T09:08:42.983Z,8.31
2019-05-06T09:09:42.193Z,8.32
2019-05-06T09:10:42.948Z,8.02
2019-05-06T09:11:43.162Z,8.01
2019-05-06T09:12:42.510Z,8.12
2019-05-06T09:13:42.887Z,8.10
2019-05-06T09:14:43.022Z,8.40
2019-05-06T09:15:42.892Z,9.01
2019-05-06T09:16:43.862Z,9.35
2019-05-06T09:17:42.079Z,9.69
2019-05-06T09:18:42.621Z,9.84
2019-05-06T09:19:42.648Z,9.87
2019-05-06T09:20:43.172Z,9.63
2019-05-06T09:21:45.853Z,9.44
2019-05-06T09:22:42.983Z,9.48
2019-05-06T09:23:42.510Z,9.41
2019-05-06T09:24:42.694Z,9.16
2019-05-06T09:25:42.477Z,8.77
2019-05-06T09:26:43.067Z,8.84
2019-05-06T09:27:42.150Z,9.09
2019-05-06T09:28:42.637Z,9.41
2019-05-06T09:29:42.971Z,9.54
2019-05-06T09:30:43.222Z,9.39
2019-05-06T09:31:42.705Z,9.53
2019-05-06T09:32:42.902Z,9.41
2019-05-06T09:33:42.491Z,9.36
2019-05-06T09:34:43.129Z,9.16
2019-05-06T09:35:42.201Z,9.24
2019-05-06T09:36:51.005Z,9.37
2019-05-06T09:37:42.937Z,9.38
2019-05-06T09:38:42.460Z,9.44
2019-05-06T09:39:43.016Z,9.28
2019-05-06T09:40:43.318Z,9.20
2019-05-06T09:41:47.266Z,8.94
2019-05-06T09:42:42.555Z,8.91
2019-05-06T09:43:43.370Z,8.95
2019-05-06T09:44:42.769Z,9.11
2019-05-06T09:45:42.551Z,8.93
2019-05-06T09:46:42.617Z,8.77
2019-05-06T09:47:42.384Z,8.82
2019-05-06T09:48:42.485Z,9.06
2019-05-06T09:49:42.569Z,8.69
2019-05-06T09:50:45.452Z,8.63
2019-05-06T09:51:42.552Z,8.80
2019-05-06T09:52:42.713Z,8.56
2019-05-06T09:53:43.263Z,8.63
2019-05-06T09:54:42.732Z,8.26
2019-05-06T09:55:43.007Z,8.48
2019-05-06T09:56:42.769Z,8.61
2019-05-06T09:57:42.684Z,8.74
2019-05-06T09:58:42.918Z,8.77
2019-05-06T09:59:42.163Z,8.65
2019-05-06T10:00:42.935Z,8.82
2019-05-06T10:01:43.788Z,8.96
2019-05-06T10:02:42.980Z,8.93
2019-05-06T10:03:42.650Z,8.93
2019-05-06T10:04:42.818Z,8.86
2019-05-06T10:05:42.512Z,8.89
2019-05-06T10:06:55.646Z,8.94
2019-05-06T10:07:41.729Z,9.05
2019-05-06T10:08:41.682Z,9.18
2019-05-06T10:09:43.388Z,9.33
2019-05-06T10:10:53.781Z,9.42
2019-05-06T10:11:42.302Z,9.44
2019-05-06T10:12:42.037Z,9.46
2019-05-06T10:13:43.088Z,8.88
2019-05-06T10:14:43.251Z,8.92
2019-05-06T10:15:42.900Z,9.11
2019-05-06T10:16:42.965Z,9.13
2019-05-06T10:17:42.915Z,9.14
2019-05-06T10:18:41.642Z,9.28
2019-05-06T10:19:42.882Z,9.11
2019-05-06T10:20:42.703Z,9.04
2019-05-06T10:21:42.735Z,9.26
2019-05-06T10:22:43.056Z,9.14
2019-05-06T10:23:42.415Z,9.56
2019-05-06T10:24:43.003Z,9.86
2019-05-06T10:25:43.585Z,10.02
2019-05-06T10:26:43.182Z,10.36
2019-05-06T10:27:42.288Z,10.52
2019-05-06T10:28:41.673Z,10.62
2019-05-06T10:29:43.224Z,10.60
2019-05-06T10:30:41.797Z,10.43
2019-05-06T10:31:43.205Z,10.51
2019-05-06T10:32:42.602Z,10.59
2019-05-06T10:33:42.744Z,9.69
2019-05-06T10:34:43.481Z,9.64
2019-05-06T10:35:42.870Z,9.98
2019-05-06T10:36:42.698Z,10.20
2019-05-06T10:37:42.285Z,10.41
2019-05-06T10:38:42.356Z,10.37
2019-05-06T10:39:41.756Z,10.26
2019-05-06T10:40:58.977Z,10.14
2019-05-06T10:41:42.190Z,10.07
2019-05-06T10:42:43.023Z,9.88
2019-05-06T10:43:43.104Z,9.85
2019-05-06T10:44:42.777Z,9.88
2019-05-06T10:45:42.662Z,9.95
2019-05-06T10:46:43.056Z,9.48
2019-05-06T10:47:42.313Z,9.62
2019-05-06T10:48:42.454Z,9.54
2019-05-06T10:49:42.146Z,9.62
2019-05-06T10:50:41.724Z,9.79
2019-05-06T10:51:42.724Z,9.86
2019-05-06T10:52:41.827Z,10.01
2019-05-06T10:53:42.446Z,10.13
2019-05-06T10:54:42.160Z,10.16
2019-05-06T10:55:42.750Z,10.22
2019-05-06T10:56:52.323Z,10.18
2019-05-06T10:57:43.077Z,10.10
2019-05-06T10:58:43.946Z,10.10
2019-05-06T10:59:42.910Z,10.31
2019-05-06T11:00:42.498Z,10.47
2019-05-06T11:01:42.672Z,10.70
2019-05-06T11:02:43.044Z,10.73
2019-05-06T11:03:42.081Z,10.87
2019-05-06T11:04:42.636Z,10.86
2019-05-06T11:05:43.093Z,10.37
2019-05-06T11:06:42.987Z,10.25
2019-05-06T11:07:43.136Z,10.51
2019-05-06T11:08:42.203Z,10.76
2019-05-06T11:09:42.650Z,10.99
2019-05-06T11:10:44.944Z,10.95
2019-05-06T11:11:42.730Z,10.93
2019-05-06T11:12:43.081Z,10.58
2019-05-06T11:13:41.674Z,10.39
2019-05-06T11:14:41.838Z,10.16
2019-05-06T11:15:43.356Z,10.16
2019-05-06T11:16:41.855Z,10.23
2019-05-06T11:17:43.655Z,10.62
2019-05-06T11:18:42.593Z,10.77
2019-05-06T11:19:42.767Z,10.66
2019-05-06T11:20:43.942Z,10.49
2019-05-06T11:21:45.130Z,10.38
2019-05-06T11:22:43.531Z,10.14
2019-05-06T11:23:41.926Z,10.37
2019-05-06T11:24:42.243Z,10.45
2019-05-06T11:25:43.205Z,10.37
2019-05-06T11:26:43.027Z,10.40
2019-05-06T11:27:44.934Z,10.21
2019-05-06T11:28:42.585Z,10.19
2019-05-06T11:29:43.554Z,10.11
2019-05-06T11:30:42.518Z,10.12
2019-05-06T11:31:43.281Z,9.72
2019-05-06T11:32:44.199Z,10.01
2019-05-06T11:33:44.514Z,10.18
2019-05-06T11:34:42.141Z,10.28
2019-05-06T11:35:43.107Z,10.34
2019-05-06T11:36:42.620Z,10.33
2019-05-06T11:37:47.176Z,10.31
2019-05-06T11:38:43.169Z,10.25
2019-05-06T11:39:43.070Z,10.25
2019-05-06T11:40:42.139Z,10.09
2019-05-06T11:41:59.627Z,9.90
2019-05-06T11:42:43.632Z,9.76
2019-05-06T11:43:42.837Z,9.67
2019-05-06T11:44:44.062Z,9.68
2019-05-06T11:45:42.736Z,9.73
2019-05-06T11:46:42.972Z,9.84
2019-05-06T11:47:42.171Z,9.77
2019-05-06T11:48:43.166Z,9.69
2019-05-06T11:49:44.119Z,9.64
2019-05-06T11:50:42.743Z,9.61
2019-05-06T11:51:43.514Z,9.64
2019-05-06T11:52:43.451Z,9.66
2019-05-06T11:53:41.811Z,9.65
2019-05-06T11:54:42.283Z,9.64
2019-05-06T11:55:41.831Z,9.58
2019-05-06T11:56:50.675Z,9.58
2019-05-06T11:57:44.409Z,9.43
2019-05-06T11:58:42.740Z,9.36
2019-05-06T11:59:43.279Z,9.31
2019-05-06T12:00:44.391Z,9.25
2019-05-06T12:01:43.441Z,9.27
2019-05-06T12:02:44.528Z,9.30
2019-05-06T12:03:42.741Z,9.28
2019-05-06T12:04:41.989Z,9.42
2019-05-06T12:05:41.929Z,9.55
2019-05-06T12:06:42.335Z,9.78
2019-05-06T12:07:44.897Z,9.90
2019-05-06T12:08:43.222Z,9.98
2019-05-06T12:09:41.779Z,10.11
2019-05-06T12:10:42.455Z,10.14
2019-05-06T12:11:43.235Z,10.27
2019-05-06T12:12:42.518Z,10.14
2019-05-06T12:13:42.564Z,10.24
2019-05-06T12:14:42.911Z,10.32
2019-05-06T12:15:41.843Z,10.44
2019-05-06T12:16:41.816Z,10.29
2019-05-06T12:17:42.247Z,10.25
2019-05-06T12:18:42.229Z,10.46
2019-05-06T12:19:43.270Z,10.48
2019-05-06T12:20:42.603Z,10.52
2019-05-06T12:21:43.099Z,10.72
2019-05-06T12:22:42.357Z,10.78
2019-05-06T12:23:44.799Z,10.82
2019-05-06T12:24:43.105Z,10.71
2019-05-06T12:25:45.415Z,10.56
2019-05-06T12:26:42.912Z,10.50
2019-05-06T12:27:43.049Z,10.29
2019-05-06T12:28:43.424Z,10.12
2019-05-06T12:29:42.833Z,10.00
2019-05-06T12:30:42.728Z,10.27
2019-05-06T12:31:42.285Z,10.39
2019-05-06T12:32:43.331Z,9.84
2019-05-06T12:33:42.697Z,9.94
2019-05-06T12:34:43.011Z,10.10
2019-05-06T12:35:42.807Z,10.37
2019-05-06T12:36:42.781Z,10.56
2019-05-06T12:37:44.077Z,10.67
2019-05-06T12:38:43.235Z,10.65
2019-05-06T12:39:43.171Z,10.57
2019-05-06T12:40:42.912Z,10.61
2019-05-06T12:41:43.104Z,10.66
2019-05-06T12:42:43.160Z,10.74
2019-05-06T12:43:43.010Z,10.65
2019-05-06T12:44:41.747Z,10.59
2019-05-06T12:45:42.965Z,10.55
2019-05-06T12:46:43.022Z,10.44
2019-05-06T12:47:42.688Z,10.42
2019-05-06T12:48:43.956Z,10.42
2019-05-06T12:49:42.594Z,10.20
2019-05-06T12:50:43.123Z,10.01
2019-05-06T12:51:43.300Z,9.82
2019-05-06T12:52:44.241Z,9.84
2019-05-06T12:53:42.749Z,9.87
2019-05-06T12:54:42.959Z,9.80
2019-05-06T12:55:43.076Z,9.74
2019-05-06T12:56:42.552Z,9.83
2019-05-06T12:57:43.304Z,9.97
2019-05-06T12:58:44.271Z,10.13
2019-05-06T12:59:42.564Z,10.11
2019-05-06T13:00:41.865Z,10.08
2019-05-06T13:01:45.465Z,10.07
2019-05-06T13:02:43.754Z,9.82
2019-05-06T13:03:43.236Z,9.57
2019-05-06T13:04:51.668Z,9.54
2019-05-06T13:05:42.778Z,9.14
2019-05-06T13:06:46.208Z,9.00
2019-05-06T13:07:42.103Z,8.95
2019-05-06T13:08:57.269Z,9.09
2019-05-06T13:09:43.248Z,9.21
2019-05-06T13:10:42.184Z,9.47
2019-05-06T13:11:43.065Z,9.40
2019-05-06T13:12:42.376Z,9.51
2019-05-06T13:13:56.406Z,9.35
2019-05-06T13:14:43.117Z,9.27